createdAt,value
2019-01-20T00:02:10.560Z,-2.30
2019-01-20T00:04:40.836Z,-2.40
2019-01-20T00:07:12.121Z,-2.40
2019-01-20T00:09:43.453Z,-2.50
2019-01-20T00:12:13.733Z,-2.40
2019-01-20T00:14:44.035Z,-2.40
2019-01-20T00:17:14.295Z,-2.30
2019-01-20T00:19:44.568Z,-2.60
2019-01-20T00:22:14.869Z,-2.50
2019-01-20T00:24:45.258Z,-2.40
2019-01-20T00:27:15.554Z,-2.40
2019-01-20T00:29:45.815Z,-2.60
2019-01-20T00:32:16.125Z,-2.40
2019-01-20T00:34:46.370Z,-2.20
2019-01-20T00:37:16.686Z,-2.40
2019-01-20T00:39:47.071Z,-2.50
2019-01-20T00:42:17.394Z,-2.60
2019-01-20T00:44:47.778Z,-2.50
2019-01-20T00:47:18.057Z,-2.40
2019-01-20T00:49:48.368Z,-2.70
2019-01-20T00:52:18.705Z,-2.60
2019-01-20T00:54:48.990Z,-2.50
2019-01-20T00:57:19.302Z,-2.60
2019-01-20T00:59:49.604Z,-2.60
2019-01-20T01:02:19.923Z,-2.60
2019-01-20T01:04:50.220Z,-2.60
2019-01-20T01:07:20.578Z,-2.60
2019-01-20T01:09:50.906Z,-2.60
2019-01-20T01:12:21.298Z,-2.60
2019-01-20T01:14:51.658Z,-2.10
2019-01-20T01:17:21.944Z,-2.60
2019-01-20T01:19:52.224Z,-2.40
2019-01-20T01:22:22.542Z,-2.60
2019-01-20T01:24:52.772Z,-2.30
2019-01-20T01:27:23.115Z,-2.60
2019-01-20T01:29:53.362Z,-2.60
2019-01-20T01:32:23.684Z,-2.70
2019-01-20T01:34:53.978Z,-2.70
2019-01-20T01:37:24.288Z,-2.70
2019-01-20T01:39:54.584Z,-2.70
2019-01-20T01:42:24.824Z,-2.70
2019-01-20T01:44:55.102Z,-2.50
2019-01-20T01:47:25.338Z,-2.50
2019-01-20T01:49:55.634Z,-2.50
2019-01-20T01:52:25.954Z,-2.50
2019-01-20T01:54:56.253Z,-2.40
2019-01-20T01:57:26.548Z,-2.60
2019-01-20T01:59:56.844Z,-2.50
2019-01-20T02:02:27.389Z,-2.40
2019-01-20T02:04:57.651Z,-2.10
2019-01-20T02:07:27.956Z,-1.90
2019-01-20T02:09:58.199Z,-1.90
2019-01-20T02:12:28.432Z,-1.80
2019-01-20T02:14:58.769Z,-1.80
2019-01-20T02:17:28.980Z,-1.60
2019-01-20T02:19:59.579Z,-1.60
2019-01-20T02:22:29.924Z,-1.70
2019-01-20T02:25:00.284Z,-1.70
2019-01-20T02:27:30.510Z,-1.70
2019-01-20T02:30:00.777Z,-1.50
2019-01-20T02:32:31.260Z,-1.50
2019-01-20T02:35:01.526Z,-1.40
2019-01-20T02:37:31.814Z,-1.30
2019-01-20T02:40:02.767Z,-1.20
2019-01-20T02:42:33.056Z,-1.10
2019-01-20T02:45:03.579Z,-0.90
2019-01-20T02:47:34.158Z,-1.00
2019-01-20T02:50:05.034Z,-0.90
2019-01-20T02:52:35.361Z,-1.00
2019-01-20T02:55:06.470Z,-1.00
2019-01-20T02:57:36.823Z,-1.00
2019-01-20T03:00:16.088Z,-0.80
2019-01-20T03:02:46.384Z,-0.80
2019-01-20T03:05:17.902Z,-0.80
2019-01-20T03:07:48.320Z,-0.80
2019-01-20T03:10:18.631Z,-0.70
2019-01-20T03:12:48.974Z,-0.60
2019-01-20T03:15:19.351Z,-0.90
2019-01-20T03:17:49.661Z,-0.90
2019-01-20T03:20:21.678Z,-0.90
2019-01-20T03:22:52.968Z,-0.90
2019-01-20T03:25:24.228Z,-0.70
2019-01-20T03:27:54.569Z,-0.60
2019-01-20T03:30:24.877Z,-0.80
2019-01-20T03:32:56.177Z,-0.70
2019-01-20T03:35:27.115Z,-0.70
2019-01-20T03:37:57.392Z,-0.70
2019-01-20T03:40:27.696Z,-0.70
2019-01-20T03:42:58.088Z,-1.30
2019-01-20T03:45:28.407Z,-1.00
2019-01-20T03:47:58.731Z,-1.10
2019-01-20T03:50:29.022Z,-1.10
2019-01-20T03:53:06.906Z,-1.10
2019-01-20T03:55:37.226Z,-0.90
2019-01-20T03:58:07.589Z,-0.80
2019-01-20T04:00:37.860Z,-0.90
2019-01-20T04:03:08.388Z,-0.90
2019-01-20T04:05:38.651Z,-1.00
2019-01-20T04:08:08.956Z,-1.20
2019-01-20T04:10:39.236Z,-1.10
2019-01-20T04:13:09.565Z,-1.10
2019-01-20T04:15:39.840Z,-1.20
2019-01-20T04:18:10.335Z,-1.40
2019-01-20T04:20:40.662Z,-1.60
2019-01-20T04:23:10.960Z,-1.50
2019-01-20T04:25:41.196Z,-1.50
2019-01-20T04:28:11.639Z,-1.60
2019-01-20T04:30:41.882Z,-1.60
2019-01-20T04:33:12.278Z,-1.70
2019-01-20T04:35:42.472Z,-2.00
2019-01-20T04:38:12.774Z,-2.00
2019-01-20T04:40:42.976Z,-2.10
2019-01-20T04:43:13.368Z,-2.00
2019-01-20T04:45:43.677Z,-2.10
2019-01-20T04:48:14.143Z,-2.10
2019-01-20T04:50:58.425Z,-2.20
2019-01-20T04:53:29.074Z,-2.30
2019-01-20T04:55:59.312Z,-2.30
2019-01-20T04:58:29.823Z,-2.30
2019-01-20T05:01:00.090Z,-2.40
2019-01-20T05:03:30.468Z,-2.50
2019-01-20T05:06:01.853Z,-2.40
2019-01-20T05:08:32.166Z,-2.60
2019-01-20T05:11:02.420Z,-2.40
2019-01-20T05:13:32.652Z,-2.60
2019-01-20T05:16:02.933Z,-2.60
2019-01-20T05:18:33.203Z,-2.50
2019-01-20T05:23:43.914Z,-2.80
2019-01-20T05:29:07.844Z,-2.90
2019-01-20T05:31:43.942Z,-3.00
2019-01-20T05:34:14.271Z,-2.90
2019-01-20T05:36:44.454Z,-2.80
2019-01-20T05:39:14.807Z,-2.70
2019-01-20T05:41:45.052Z,-2.80
2019-01-20T05:44:15.355Z,-2.80
2019-01-20T05:46:51.014Z,-2.50
2019-01-20T05:49:21.468Z,-2.80
2019-01-20T05:51:51.735Z,-2.90
2019-01-20T05:54:22.091Z,-2.80
2019-01-20T05:56:52.423Z,-2.90
2019-01-20T05:59:22.808Z,-2.80
2019-01-20T06:01:53.117Z,-2.80
2019-01-20T06:04:23.425Z,-2.80
2019-01-20T06:06:53.730Z,-2.80
2019-01-20T06:09:24.001Z,-3.00
2019-01-20T06:11:54.290Z,-3.00
2019-01-20T06:14:36.356Z,-3.00
2019-01-20T06:17:06.624Z,-3.10
2019-01-20T06:19:36.943Z,-3.20
2019-01-20T06:22:07.221Z,-4.80
2019-01-20T06:24:37.569Z,-3.00
2019-01-20T06:27:07.818Z,-3.00
2019-01-20T06:29:38.071Z,-3.00
2019-01-20T06:32:08.405Z,-3.10
2019-01-20T06:34:38.767Z,-3.00
2019-01-20T06:37:09.277Z,-3.00
2019-01-20T06:39:39.635Z,-2.90
2019-01-20T06:42:09.931Z,-1.20
2019-01-20T06:44:40.099Z,-3.00
2019-01-20T06:47:10.419Z,-3.00
2019-01-20T06:49:40.719Z,-3.40
2019-01-20T06:52:11.044Z,-3.00
2019-01-20T06:54:41.333Z,-3.10
2019-01-20T06:57:11.600Z,-2.90
2019-01-20T06:59:41.875Z,-2.80
2019-01-20T07:02:12.224Z,-2.90
2019-01-20T07:04:42.575Z,-3.00
2019-01-20T07:07:12.811Z,-2.90
2019-01-20T07:09:43.139Z,-3.00
2019-01-20T07:12:15.876Z,-2.90
2019-01-20T07:14:46.067Z,-3.10
2019-01-20T07:17:16.313Z,-3.10
2019-01-20T07:19:46.611Z,-3.10
2019-01-20T07:22:17.198Z,-3.30
2019-01-20T07:24:47.493Z,-2.90
2019-01-20T07:27:17.927Z,-2.90
2019-01-20T07:29:48.190Z,-2.90
2019-01-20T07:32:18.503Z,-3.10
2019-01-20T07:34:48.795Z,-2.80
2019-01-20T07:37:19.290Z,-2.80
2019-01-20T07:39:49.546Z,-2.90
2019-01-20T07:42:19.839Z,-2.70
2019-01-20T07:44:50.106Z,-2.80
2019-01-20T07:47:20.453Z,-2.80
2019-01-20T07:49:50.758Z,-2.80
2019-01-20T07:52:21.106Z,-3.00
2019-01-20T07:54:51.384Z,-3.00
2019-01-20T07:57:21.704Z,-2.90
2019-01-20T07:59:52.030Z,-2.80
2019-01-20T08:02:22.374Z,-3.50
2019-01-20T08:04:52.708Z,-2.60
2019-01-20T08:07:23.020Z,-2.50
2019-01-20T08:09:53.320Z,-2.40
2019-01-20T08:12:23.764Z,-2.40
2019-01-20T08:14:54.054Z,-2.30
2019-01-20T08:17:24.298Z,-2.20
2019-01-20T08:19:55.578Z,-2.20
2019-01-20T08:22:25.812Z,-2.20
2019-01-20T08:24:56.371Z,-2.20
2019-01-20T08:27:26.702Z,-2.30
2019-01-20T08:29:56.947Z,-2.60
2019-01-20T08:32:27.224Z,-2.60
2019-01-20T08:34:57.535Z,-2.40
2019-01-20T08:37:28.904Z,-2.50
2019-01-20T08:39:59.287Z,-2.30
2019-01-20T08:42:29.698Z,-2.30
2019-01-20T08:45:00.018Z,-2.30
2019-01-20T08:47:38.044Z,-2.30
2019-01-20T08:50:11.786Z,-2.20
2019-01-20T08:52:42.054Z,-2.20
2019-01-20T08:55:12.361Z,-2.00
2019-01-20T08:57:42.547Z,-2.00
2019-01-20T09:00:17.338Z,-2.00
2019-01-20T09:02:48.051Z,-2.00
2019-01-20T09:05:18.584Z,-1.90
2019-01-20T09:07:48.887Z,-1.50
2019-01-20T09:10:22.379Z,-1.60
2019-01-20T09:12:52.916Z,-1.60
2019-01-20T09:15:23.318Z,-1.40
2019-01-20T09:17:53.691Z,-1.30
2019-01-20T09:20:24.003Z,-1.20
2019-01-20T09:23:00.051Z,-1.20
2019-01-20T09:25:32.065Z,-1.30
2019-01-20T09:28:02.345Z,-1.20
2019-01-20T09:30:33.077Z,-1.30
2019-01-20T09:33:03.330Z,-1.40
2019-01-20T09:45:28.891Z,-1.40
2019-01-20T09:47:59.209Z,-1.40
2019-01-20T09:50:29.523Z,-1.30
2019-01-20T09:53:01.990Z,-1.10
2019-01-20T09:55:32.233Z,-1.30
2019-01-20T09:58:02.862Z,-1.30
2019-01-20T10:00:33.504Z,-1.20
2019-01-20T10:03:07.595Z,-1.10
2019-01-20T10:05:37.883Z,-1.10
2019-01-20T10:08:08.172Z,-1.00
2019-01-20T10:10:38.457Z,-0.90
2019-01-20T10:13:08.814Z,-1.00
2019-01-20T10:15:39.155Z,-1.00
2019-01-20T10:18:09.676Z,-0.90
2019-01-20T10:20:39.972Z,-0.80
2019-01-20T10:23:10.335Z,-0.80
2019-01-20T10:25:40.651Z,-1.00
2019-01-20T10:28:13.291Z,-0.90
2019-01-20T10:30:43.743Z,-0.80
2019-01-20T10:33:14.031Z,-0.70
2019-01-20T10:35:58.207Z,-0.80
2019-01-20T10:38:28.739Z,-0.80
2019-01-20T10:40:59.235Z,-0.80
2019-01-20T10:43:29.549Z,-0.90
2019-01-20T10:45:59.818Z,-1.00
2019-01-20T10:48:30.167Z,-1.00
2019-01-20T10:51:00.590Z,-1.10
2019-01-20T10:53:31.099Z,-0.60
2019-01-20T10:56:01.663Z,-0.60
2019-01-20T10:58:32.019Z,-0.30
2019-01-20T11:01:02.788Z,-0.30
2019-01-20T11:03:33.174Z,-0.40
2019-01-20T11:06:03.583Z,-0.50
2019-01-20T11:08:34.078Z,-0.40
2019-01-20T11:11:04.606Z,-0.30
2019-01-20T11:13:35.011Z,-0.20
2019-01-20T11:16:07.194Z,-0.20
2019-01-20T11:18:37.565Z,-0.40
2019-01-20T11:21:08.181Z,-0.30
2019-01-20T11:23:38.671Z,-0.20
2019-01-20T11:26:09.043Z,-0.20
2019-01-20T11:28:39.361Z,0.00
2019-01-20T11:31:09.688Z,0.00
2019-01-20T11:33:39.964Z,0.20
2019-01-20T11:36:10.386Z,0.40
2019-01-20T11:38:40.684Z,0.30
2019-01-20T11:41:10.946Z,0.30
2019-01-20T11:43:41.190Z,0.30
2019-01-20T11:46:11.532Z,0.30
2019-01-20T11:48:41.788Z,0.40
2019-01-20T11:51:12.017Z,0.40
2019-01-20T11:53:42.347Z,0.50
2019-01-20T11:56:12.774Z,0.50
2019-01-20T11:58:42.926Z,0.40
2019-01-20T12:01:13.270Z,0.40
2019-01-20T12:03:43.698Z,0.30
2019-01-20T12:06:13.976Z,0.20
2019-01-20T12:08:44.270Z,0.20
2019-01-20T12:11:14.607Z,0.10
2019-01-20T12:13:44.881Z,-0.10
2019-01-20T12:16:15.262Z,-0.10
2019-01-20T12:18:45.654Z,0.00
2019-01-20T12:21:16.047Z,0.10
2019-01-20T12:23:48.226Z,0.20
2019-01-20T12:26:28.286Z,0.00
2019-01-20T12:28:58.593Z,0.00
2019-01-20T12:31:28.874Z,0.10
2019-01-20T12:33:59.155Z,0.40
2019-01-20T12:36:29.494Z,0.30
2019-01-20T12:39:00.244Z,0.40
2019-01-20T12:41:30.795Z,0.50
2019-01-20T12:44:01.072Z,0.50
2019-01-20T12:46:31.370Z,0.40
2019-01-20T12:49:01.669Z,0.40
2019-01-20T12:51:32.088Z,0.50
2019-01-20T12:54:02.318Z,0.50
2019-01-20T12:56:32.749Z,0.40
2019-01-20T12:59:03.013Z,0.40
2019-01-20T13:01:36.416Z,0.40
2019-01-20T13:04:06.919Z,0.40
2019-01-20T13:06:37.302Z,0.40
2019-01-20T13:09:09.645Z,0.50
2019-01-20T13:11:40.051Z,0.40
2019-01-20T13:14:10.342Z,0.30
2019-01-20T13:16:40.632Z,0.20
2019-01-20T13:19:10.924Z,0.30
2019-01-20T13:21:41.223Z,0.30
2019-01-20T13:24:11.552Z,0.20
2019-01-20T13:26:41.866Z,0.20
2019-01-20T13:29:12.043Z,0.10
2019-01-20T13:31:42.510Z,-0.20
2019-01-20T13:34:12.775Z,-0.10
2019-01-20T13:36:43.127Z,-0.10
2019-01-20T13:39:14.672Z,0.00
2019-01-20T13:41:44.957Z,0.30
2019-01-20T13:44:15.276Z,0.30
2019-01-20T13:46:46.437Z,0.50
2019-01-20T13:49:16.735Z,0.50
2019-01-20T13:51:46.981Z,0.60
2019-01-20T13:54:17.285Z,0.40
2019-01-20T13:56:47.538Z,0.50
2019-01-20T13:59:17.871Z,0.50
2019-01-20T14:01:48.423Z,0.50
2019-01-20T14:04:18.751Z,0.00
2019-01-20T14:06:49.049Z,0.00
2019-01-20T14:09:19.307Z,-0.20
2019-01-20T14:11:50.083Z,-0.20
2019-01-20T14:14:20.383Z,-0.30
2019-01-20T14:16:50.649Z,-0.50
2019-01-20T14:19:21.884Z,-0.60
2019-01-20T14:21:52.259Z,-0.60
2019-01-20T14:24:22.631Z,-0.50
2019-01-20T14:26:52.966Z,-0.50
2019-01-20T14:29:23.307Z,-0.50
2019-01-20T14:31:53.681Z,-0.60
2019-01-20T14:34:23.989Z,-0.60
2019-01-20T14:36:54.241Z,-0.50
2019-01-20T14:41:55.209Z,-0.50
2019-01-20T14:44:25.807Z,-0.50
2019-01-20T14:46:56.149Z,-0.50
2019-01-20T14:49:26.498Z,-0.60
2019-01-20T14:51:56.783Z,-0.70
2019-01-20T14:54:27.091Z,-0.70
2019-01-20T14:56:57.475Z,-0.70
2019-01-20T14:59:29.495Z,-0.80
2019-01-20T15:01:59.803Z,-0.70
2019-01-20T15:04:30.216Z,-0.70
2019-01-20T15:07:00.498Z,-0.70
2019-01-20T15:09:30.855Z,-0.70
2019-01-20T15:12:01.171Z,-0.60
2019-01-20T15:14:31.531Z,-0.70
2019-01-20T15:17:01.843Z,-0.70
2019-01-20T15:19:32.197Z,-0.80
2019-01-20T15:22:02.533Z,-0.80
2019-01-20T15:24:32.944Z,-0.70
2019-01-20T15:27:03.238Z,-0.70
2019-01-20T15:29:33.629Z,-0.80
2019-01-20T15:32:03.974Z,-0.70
2019-01-20T15:34:34.314Z,-0.70
2019-01-20T15:37:04.881Z,-0.70
2019-01-20T15:39:35.346Z,-0.70
2019-01-20T15:42:05.905Z,-0.50
2019-01-20T15:44:38.891Z,-0.70
2019-01-20T15:47:09.367Z,-0.80
2019-01-20T15:49:39.742Z,-0.80
2019-01-20T15:52:10.134Z,-0.90
2019-01-20T15:54:40.366Z,-0.90
2019-01-20T15:57:10.652Z,-0.90
2019-01-20T15:59:40.927Z,-0.90
2019-01-20T16:02:11.368Z,-1.40
2019-01-20T16:04:41.722Z,-1.30
2019-01-20T16:07:11.956Z,-1.30
2019-01-20T16:09:42.301Z,-1.30
2019-01-20T16:12:12.675Z,-1.40
2019-01-20T16:14:44.594Z,-1.50
2019-01-20T16:17:15.156Z,-1.40
2019-01-20T16:19:49.260Z,-1.30
2019-01-20T16:22:19.986Z,-1.40
2019-01-20T16:24:51.427Z,-1.50
2019-01-20T16:27:21.880Z,-1.50
2019-01-20T16:29:57.194Z,-1.50
2019-01-20T16:32:27.521Z,-1.40
2019-01-20T16:34:57.804Z,-1.50
2019-01-20T16:37:28.087Z,-1.50
2019-01-20T16:39:58.410Z,-1.50
2019-01-20T16:42:28.657Z,-1.50
2019-01-20T16:45:01.079Z,-1.50
2019-01-20T16:47:31.449Z,-1.40
2019-01-20T16:50:01.843Z,-1.70
2019-01-20T16:52:32.336Z,-1.30
2019-01-20T16:55:02.613Z,-1.40
2019-01-20T16:57:32.937Z,-1.40
2019-01-20T17:00:03.334Z,-1.80
2019-01-20T17:02:34.282Z,-1.80
2019-01-20T17:05:05.840Z,-2.00
2019-01-20T17:07:36.172Z,-1.90
2019-01-20T17:10:10.301Z,-1.90
2019-01-20T17:12:40.805Z,-1.80
2019-01-20T17:15:13.719Z,-1.80
2019-01-20T17:17:44.003Z,-1.80
2019-01-20T17:20:16.445Z,-1.90
2019-01-20T17:22:47.133Z,-1.70
2019-01-20T17:25:18.541Z,-1.80
2019-01-20T17:27:48.826Z,-1.70
2019-01-20T17:30:21.343Z,-1.80
2019-01-20T17:32:51.698Z,-1.70
2019-01-20T17:35:23.113Z,-1.70
2019-01-20T17:37:53.634Z,-1.70
2019-01-20T17:40:25.502Z,-1.70
2019-01-20T17:42:56.276Z,-1.70
2019-01-20T17:45:29.191Z,-1.70
2019-01-20T17:47:59.695Z,-1.80
2019-01-20T17:50:32.377Z,-1.90
2019-01-20T17:53:02.951Z,-1.90
2019-01-20T17:55:38.432Z,-1.90
2019-01-20T17:58:08.743Z,-1.70
2019-01-20T18:00:48.361Z,-1.70
2019-01-20T18:03:18.766Z,-1.60
2019-01-20T18:05:49.243Z,-1.70
2019-01-20T18:08:19.600Z,-1.90
2019-01-20T18:10:49.835Z,-1.80
2019-01-20T18:13:21.665Z,-1.80
2019-01-20T18:15:54.581Z,-1.80
2019-01-20T18:21:11.306Z,-1.90
2019-01-20T18:23:41.621Z,-2.00
2019-01-20T18:28:54.231Z,-2.10
2019-01-20T18:31:30.790Z,-2.10
2019-01-20T18:34:01.185Z,-2.10
2019-01-20T18:36:31.605Z,-2.20
2019-01-20T18:39:08.445Z,-2.00
2019-01-20T18:41:39.416Z,-2.00
2019-01-20T18:44:13.757Z,-1.90
2019-01-20T18:46:44.139Z,-1.90
2019-01-20T18:49:14.441Z,-1.90
2019-01-20T18:51:44.996Z,-1.80
2019-01-20T18:54:15.348Z,-1.70
2019-01-20T18:56:45.645Z,-1.70
2019-01-20T18:59:15.973Z,-1.80
2019-01-20T19:01:46.259Z,-1.70
2019-01-20T19:04:16.718Z,-1.60
2019-01-20T19:06:47.112Z,-1.50
2019-01-20T19:12:05.389Z,-1.30
2019-01-20T19:14:35.893Z,-1.50
2019-01-20T19:17:06.281Z,-1.70
2019-01-20T19:19:36.621Z,-1.80
2019-01-20T19:22:07.115Z,-1.80
2019-01-20T19:24:37.419Z,-1.90
2019-01-20T19:27:07.864Z,-1.90
2019-01-20T19:29:41.008Z,-2.80
2019-01-20T19:32:11.336Z,-1.90
2019-01-20T19:34:42.762Z,-1.80
2019-01-20T19:37:13.057Z,-1.80
2019-01-20T19:39:50.375Z,-1.80
2019-01-20T19:42:15.490Z,-1.90
2019-01-20T19:44:45.954Z,-1.90
2019-01-20T19:47:16.306Z,-2.00
2019-01-20T19:49:46.643Z,-2.10
2019-01-20T19:52:16.921Z,-2.10
2019-01-20T19:54:47.325Z,0.60
2019-01-20T19:57:17.603Z,-2.20
2019-01-20T19:59:47.922Z,-2.10
2019-01-20T20:02:18.203Z,-2.10
2019-01-20T20:04:48.578Z,-2.10
2019-01-20T20:07:19.415Z,-2.20
2019-01-20T20:09:49.668Z,-2.10
2019-01-20T20:12:20.107Z,-2.20
2019-01-20T20:14:50.489Z,-2.10
2019-01-20T20:17:20.759Z,-2.10
2019-01-20T20:25:39.194Z,-2.00
2019-01-20T20:28:09.639Z,-2.10
2019-01-20T20:30:40.028Z,-2.10
2019-01-20T20:35:40.098Z,-2.20
2019-01-20T20:38:10.441Z,-2.20
2019-01-20T20:40:40.830Z,-2.00
2019-01-20T20:43:11.050Z,-2.20
2019-01-20T20:45:41.421Z,-2.30
2019-01-20T20:48:11.810Z,-2.20
2019-01-20T20:50:42.168Z,-2.10
2019-01-20T20:53:12.597Z,-2.00
2019-01-20T20:55:42.963Z,-1.90
2019-01-20T20:58:17.135Z,-1.70
2019-01-20T21:03:58.843Z,-1.60
2019-01-20T21:06:31.759Z,-1.70
2019-01-20T21:09:02.174Z,-1.70
2019-01-20T21:11:34.116Z,-1.80
2019-01-20T21:14:05.480Z,-2.00
2019-01-20T21:16:38.021Z,-2.00
2019-01-20T21:19:07.657Z,-2.00
2019-01-20T21:21:37.961Z,-2.10
2019-01-20T21:24:08.290Z,-2.10
2019-01-20T21:26:38.624Z,-2.10
2019-01-20T21:29:08.959Z,-2.10
2019-01-20T21:31:39.288Z,-2.00
2019-01-20T21:34:09.614Z,-1.90
2019-01-20T21:36:40.025Z,-1.90
2019-01-20T21:39:10.447Z,-1.80
2019-01-20T21:41:41.003Z,-1.60
2019-01-20T21:44:11.249Z,-1.70
2019-01-20T21:46:45.390Z,-1.70
2019-01-20T21:49:15.295Z,-1.70
2019-01-20T21:51:45.582Z,-1.70
2019-01-20T21:54:15.872Z,-1.60
2019-01-20T21:56:46.519Z,-1.60
2019-01-20T21:59:16.777Z,-1.60
2019-01-20T22:01:47.108Z,-1.70
2019-01-20T22:04:17.402Z,-1.60
2019-01-20T22:06:50.721Z,-1.60
2019-01-20T22:09:21.019Z,-1.60
2019-01-20T22:11:53.591Z,-1.20
2019-01-20T22:14:24.889Z,-1.30
2019-01-20T22:16:55.126Z,-1.20
2019-01-20T22:19:26.516Z,-1.20
2019-01-20T22:21:56.815Z,-1.20
2019-01-20T22:24:27.061Z,-1.20
2019-01-20T22:26:57.601Z,-1.20
2019-01-20T22:29:28.195Z,-1.20
2019-01-20T22:31:58.453Z,-1.20
2019-01-20T22:34:28.823Z,-1.30
2019-01-20T22:36:59.101Z,-1.30
2019-01-20T22:39:29.654Z,-1.20
2019-01-20T22:41:59.915Z,-1.20
2019-01-20T22:44:30.135Z,-1.20
2019-01-20T22:47:00.621Z,-1.10
2019-01-20T22:49:30.891Z,-1.20
2019-01-20T22:52:01.162Z,-1.30
2019-01-20T22:54:31.456Z,-1.30
2019-01-20T22:57:01.707Z,-1.30
2019-01-20T22:59:32.062Z,-1.20
2019-01-20T23:02:02.405Z,-1.20
2019-01-20T23:04:32.707Z,-1.10
2019-01-20T23:07:03.030Z,-1.30
2019-01-20T23:09:33.343Z,-1.20
2019-01-20T23:12:03.611Z,-1.50
2019-01-20T23:14:33.853Z,-1.20
2019-01-20T23:19:35.378Z,-1.10
2019-01-20T23:22:05.719Z,-1.20
2019-01-20T23:24:35.971Z,-1.20
2019-01-20T23:27:06.518Z,-1.20
2019-01-20T23:29:36.891Z,-1.30
2019-01-20T23:32:07.153Z,-1.30
2019-01-20T23:34:37.446Z,-1.30
2019-01-20T23:37:07.732Z,-1.10
2019-01-20T23:39:38.038Z,-1.20
2019-01-20T23:42:08.286Z,-1.20
2019-01-20T23:44:38.603Z,-1.30
2019-01-20T23:47:15.039Z,-1.20
2019-01-20T23:49:40.722Z,-1.10
2019-01-20T23:52:10.968Z,-1.10
2019-01-20T23:54:41.306Z,-1.10
2019-01-20T23:57:11.546Z,-1.20
2019-01-20T23:59:41.942Z,-1.20
